Time;durP1;ratioP1;P1;durP2;ratioP2;P2;SDS_P1;SDS_P2;PMS_P1;PMS_P2;Temp;Humidity;BMP_temperature;BMP_pressure;BME280_temperature;BME280_humidity;BME280_pressure;Samples;Min_cycle;Max_cycle;Signal;HPM_P1;HPM_P2
2022/10/31 00:00:24;;;;;;;7.50;1.90;;;;;;;8.74;79.96;99226.70;106583;1305;22109;-62
2022/10/31 00:02:51;;;;;;;;;;;;;;;8.73;80.00;99227.77;106601;1305;22379;-62
2022/10/31 00:05:18;;;;;;;4.00;2.00;;;;;;;8.70;80.35;99227.02;106676;1297;22724;-61
2022/10/31 00:07:44;;;;;;;;;;;;;;;8.67;80.31;99220.89;106575;1297;22325;-62
2022/10/31 00:10:11;;;;;;;5.00;1.60;;;;;;;8.66;80.38;99225.88;106685;1306;22998;-62
2022/10/31 00:12:38;;;;;;;;;;;;;;;8.66;80.61;99222.90;106655;1294;23260;-62
2022/10/31 00:15:05;;;;;;;4.70;1.70;;;;;;;8.64;80.77;99221.70;106588;1307;22650;-62
2022/10/31 00:17:45;;;;;;;4.30;1.50;;;;;;;8.61;80.89;99223.67;106604;1289;22300;-62
2022/10/31 00:20:12;;;;;;;;;;;;;;;8.59;81.29;99221.46;106602;1297;22389;-62
2022/10/31 00:22:39;;;;;;;4.50;1.70;;;;;;;8.58;81.32;99221.55;106693;1297;23019;-62
2022/10/31 00:25:06;;;;;;;4.20;1.90;;;;;;;8.52;81.35;99216.85;106741;1306;22280;-62
2022/10/31 00:27:33;;;;;;;5.50;2.00;;;;;;;8.54;81.65;99222.14;106724;1303;22114;-62
2022/10/31 00:29:59;;;;;;;;;;;;;;;8.54;81.81;99222.57;106629;1305;22371;-61
2022/10/31 00:32:29;;;;;;;7.20;1.90;;;;;;;8.52;81.82;99223.86;106676;1306;22849;-62
2022/10/31 00:34:56;;;;;;;5.20;1.80;;;;;;;8.49;81.92;99222.11;106588;1294;22163;-62
2022/10/31 00:37:23;;;;;;;6.20;1.80;;;;;;;8.49;82.05;99227.86;106645;1287;22220;-62
2022/10/31 00:39:50;;;;;;;;;;;;;;;8.48;82.10;99228.34;106618;1305;23112;-62
2022/10/31 00:42:17;;;;;;;8.30;2.20;;;;;;;8.46;82.25;99225.16;106720;1292;22911;-62
2022/10/31 00:44:44;;;;;;;;;;;;;;;8.44;82.29;99226.22;106755;1286;23583;-62
2022/10/31 00:47:10;;;;;;;8.60;2.10;;;;;;;8.38;82.50;99220.15;106610;1296;22373;-62
2022/10/31 00:49:37;;;;;;;;;;;;;;;8.40;82.67;99221.64;106663;1298;22379;-62
2022/10/31 00:52:04;;;;;;;11.60;2.60;;;;;;;8.36;82.95;99216.31;106615;1297;22119;-62
2022/10/31 00:54:30;;;;;;;;;;;;;;;8.38;82.91;99221.88;106613;1308;22349;-62
2022/10/31 00:56:57;;;;;;;6.10;1.60;;;;;;;8.36;83.04;99216.29;106593;1305;22167;-62
2022/10/31 00:59:24;;;;;;;;;;;;;;;8.35;83.21;99214.75;106610;1306;22373;-62
2022/10/31 01:01:51;;;;;;;4.90;1.90;;;;;;;8.33;83.32;99213.75;106648;1303;22281;-62
2022/10/31 01:04:18;;;;;;;5.90;2.30;;;;;;;8.33;83.33;99215.52;106530;1309;22269;-62
2022/10/31 01:06:44;;;;;;;4.40;1.90;;;;;;;8.30;83.46;99214.08;106649;1290;22310;-62
2022/10/31 01:09:11;;;;;;;;;;;;;;;8.32;83.58;99222.09;106494;1295;22353;-61
2022/10/31 01:11:38;;;;;;;10.60;2.40;;;;;;;8.31;83.60;99222.59;106573;1305;22200;-62
2022/10/31 01:14:06;;;;;;;7.50;2.10;;;;;;;8.30;83.68;99224.91;106571;1303;22227;-62
2022/10/31 01:16:33;;;;;;;6.90;2.10;;;;;;;8.29;83.85;99224.39;106566;1306;22202;-62
2022/10/31 01:19:00;;;;;;;;;;;;;;;8.29;84.04;99224.83;106611;1297;22357;-61
2022/10/31 01:21:27;;;;;;;8.00;2.50;;;;;;;8.27;83.99;99220.30;106603;1305;22264;-62
2022/10/31 01:23:57;;;;;;;7.20;1.80;;;;;;;8.27;84.20;99224.03;106542;1303;22226;-61
2022/10/31 01:26:25;;;;;;;;;;;;;;;8.27;84.10;99225.98;106660;1306;22392;-61
2022/10/31 01:28:54;;;;;;;4.80;1.60;;;;;;;8.27;84.23;99233.42;106641;1305;23155;-62
2022/10/31 01:31:22;;;;;;;13.20;2.00;;;;;;;8.25;84.29;99228.08;106511;1297;22221;-62
2022/10/31 01:33:49;;;;;;;3.30;1.60;;;;;;;8.25;84.39;99231.60;106594;1306;22129;-62
2022/10/31 01:36:21;;;;;;;5.00;1.60;;;;;;;8.22;84.35;99231.85;106587;1297;22109;-61
2022/10/31 01:38:51;;;;;;;5.30;1.80;;;;;;;8.23;84.60;99227.83;106624;1305;22348;-62
2022/10/31 01:41:21;;;;;;;7.50;2.10;;;;;;;8.22;84.62;99231.84;106589;1295;23032;-62
2022/10/31 01:43:58;;;;;;;9.20;1.90;;;;;;;8.22;84.54;99235.21;106646;1305;23013;-62
2022/10/31 01:46:37;;;;;;;7.30;2.80;;;;;;;8.20;84.53;99231.60;106585;1305;22111;-61
2022/10/31 01:49:05;;;;;;;6.30;1.60;;;;;;;8.23;84.51;99223.55;106646;1305;22137;-61
2022/10/31 01:51:34;;;;;;;5.90;1.80;;;;;;;8.24;84.34;99225.19;106537;1302;22265;-61
2022/10/31 01:54:07;;;;;;;4.30;1.70;;;;;;;8.23;84.30;99221.91;106600;1305;23217;-62
2022/10/31 01:56:35;;;;;;;5.70;1.90;;;;;;;8.22;84.33;99225.71;106628;1299;22141;-61
2022/10/31 01:59:01;;;;;;;5.80;1.60;;;;;;;8.20;84.37;99222.44;106629;1306;22213;-61
2022/10/31 02:01:28;;;;;;;;;;;;;;;8.18;84.41;99223.82;106509;1292;24048;-62
2022/10/31 02:03:55;;;;;;;2.40;1.20;;;;;;;8.18;84.48;99226.30;106664;1289;23205;-62
2022/10/31 02:06:41;;;;;;;7.20;1.80;;;;;;;8.18;84.40;99223.21;106526;1299;22130;-62
2022/10/31 02:09:11;;;;;;;5.70;1.90;;;;;;;8.14;84.41;99230.16;106530;1292;22125;-62
2022/10/31 02:11:38;;;;;;;7.40;2.50;;;;;;;8.12;84.60;99229.85;106524;1306;22185;-62
2022/10/31 02:14:04;;;;;;;;;;;;;;;8.10;84.59;99236.11;106603;1306;22363;-62
2022/10/31 02:16:31;;;;;;;10.10;2.40;;;;;;;8.07;84.55;99242.04;106628;1305;22118;-62
2022/10/31 02:18:58;;;;;;;8.10;1.60;;;;;;;8.03;84.72;99244.04;106606;1305;22256;-61
2022/10/31 02:21:47;;;;;;;7.40;1.80;;;;;;;8.01;84.77;99251.07;106609;1291;22203;-61
2022/10/31 02:24:51;;;;;;;4.10;1.50;;;;;;;7.98;84.86;99252.76;106541;1306;22135;-61
2022/10/31 02:27:31;;;;;;;6.70;1.90;;;;;;;7.99;84.95;99258.30;106581;1306;22172;-61
2022/10/31 02:30:07;;;;;;;5.60;1.70;;;;;;;7.99;85.02;99259.77;106590;1305;22209;-61
2022/10/31 02:32:56;;;;;;;5.70;1.70;;;;;;;7.99;85.24;99261.08;106557;1290;22042;-61
2022/10/31 02:35:36;;;;;;;10.10;1.90;;;;;;;8.00;85.08;99263.27;106564;1304;22120;-61
2022/10/31 02:38:02;;;;;;;7.20;1.90;;;;;;;8.00;85.00;99268.36;106597;1304;22399;-61
2022/10/31 02:40:37;;;;;;;;;;;;;;;7.98;85.10;99276.56;106546;1308;22385;-61
2022/10/31 02:44:09;;;;;;;5.90;2.00;;;;;;;7.92;84.98;99276.76;106402;1305;23049;-61
2022/10/31 02:46:42;;;;;;;6.10;1.80;;;;;;;7.88;85.14;99291.17;105945;1309;22955;-61
2022/10/31 02:49:15;;;;;;;6.60;2.30;;;;;;;7.83;85.13;99290.21;106087;1311;22182;-61
2022/10/31 02:51:42;;;;;;;4.10;2.00;;;;;;;7.82;85.13;99293.17;106011;1309;22969;-61
2022/10/31 02:54:17;;;;;;;5.50;1.50;;;;;;;7.80;85.20;99294.55;106055;1305;22229;-61
2022/10/31 02:56:44;;;;;;;4.30;1.90;;;;;;;7.80;85.22;99303.73;103220;1312;22790;-60
2022/10/31 02:59:11;;;;;;;;;;;;;;;7.80;85.23;99304.20;101500;1298;24497;-60
2022/10/31 03:01:59;;;;;;;5.70;1.90;;;;;;;7.78;85.31;99302.46;101773;1290;24243;-61
2022/10/31 03:04:46;;;;;;;6.20;1.70;;;;;;;7.76;85.29;99304.81;105978;1309;22769;-61
2022/10/31 03:07:31;;;;;;;7.00;1.90;;;;;;;7.73;85.18;99306.27;106101;1304;22324;-61
2022/10/31 03:10:27;;;;;;;3.70;1.80;;;;;;;7.73;85.47;99313.70;106184;1309;23102;-61
2022/10/31 03:13:15;;;;;;;3.90;1.80;;;;;;;7.73;85.46;99315.77;105930;1300;22133;-61
2022/10/31 03:15:50;;;;;;;3.30;1.70;;;;;;;7.74;85.47;99316.11;106131;1309;22177;-61
2022/10/31 03:18:19;;;;;;;7.70;2.00;;;;;;;7.76;85.43;99318.25;105933;1310;22296;-62
2022/10/31 03:20:49;;;;;;;6.70;2.20;;;;;;;7.79;85.39;99315.96;105963;1313;23301;-62
2022/10/31 03:23:17;;;;;;;6.00;2.00;;;;;;;7.83;85.31;99315.65;106072;1306;22200;-62
2022/10/31 03:25:48;;;;;;;5.40;2.20;;;;;;;7.88;85.11;99325.23;106498;1307;22122;-62
2022/10/31 03:28:15;;;;;;;;;;;;;;;7.91;84.92;99325.73;106549;1306;22462;-62
2022/10/31 03:30:42;;;;;;;6.60;2.40;;;;;;;7.94;84.52;99333.79;106630;1305;22297;-62
2022/10/31 03:33:11;;;;;;;7.30;2.00;;;;;;;7.95;84.36;99331.48;106545;1303;22917;-62
2022/10/31 03:35:40;;;;;;;4.60;2.20;;;;;;;7.95;84.19;99334.03;106498;1301;22209;-62
2022/10/31 03:38:07;;;;;;;6.00;2.10;;;;;;;7.93;83.72;99334.64;106542;1303;22336;-62
2022/10/31 03:40:34;;;;;;;;;;;;;;;7.97;83.45;99342.30;106356;1306;22444;-62
2022/10/31 03:43:04;;;;;;;3.90;1.60;;;;;;;7.95;83.27;99337.98;106622;1300;22147;-61
2022/10/31 03:45:31;;;;;;;5.60;1.40;;;;;;;7.99;82.92;99345.65;106539;1305;22122;-62
2022/10/31 03:47:58;;;;;;;7.80;1.90;;;;;;;7.98;82.46;99351.55;106569;1305;22117;-62
2022/10/31 03:50:29;;;;;;;8.40;2.10;;;;;;;7.95;82.15;99357.91;106424;1305;22198;-62
2022/10/31 03:53:05;;;;;;;3.90;1.50;;;;;;;7.94;81.78;99363.70;106511;1302;22368;-62
2022/10/31 03:55:55;;;;;;;10.50;2.80;;;;;;;7.91;81.48;99364.20;105911;1298;25291;-61
2022/10/31 03:58:25;;;;;;;6.50;1.60;;;;;;;7.89;81.25;99369.90;101405;1291;1072889;-60
2022/10/31 04:01:44;;;;;;;4.90;1.30;;;;;;;7.87;81.26;99371.98;99743;1345;545058;-61
2022/10/31 04:04:11;;;;;;;3.10;1.80;;;;;;;7.81;81.12;99383.16;105913;1306;22180;-62
2022/10/31 04:06:39;;;;;;;7.30;2.00;;;;;;;7.79;80.93;99391.48;106204;1310;22167;-62
2022/10/31 04:09:05;;;;;;;9.30;1.80;;;;;;;7.76;80.24;99398.10;106065;1310;22177;-62
2022/10/31 04:11:36;;;;;;;5.10;1.60;;;;;;;7.74;79.64;99403.81;105862;1308;23155;-62
2022/10/31 04:14:23;;;;;;;2.30;1.40;;;;;;;7.73;78.43;99402.16;105450;1304;913440;-62
2022/10/31 04:16:49;;;;;;;3.00;1.50;;;;;;;7.73;77.85;99402.66;106296;1309;22144;-62
2022/10/31 04:19:29;;;;;;;5.40;1.30;;;;;;;7.70;77.42;99408.77;106395;1309;22220;-62
2022/10/31 04:21:55;;;;;;;;;;;;;;;7.65;76.58;99409.64;106442;1309;22345;-62
2022/10/31 04:24:22;;;;;;;6.90;1.30;;;;;;;7.60;75.86;99414.02;106409;1300;22213;-62
2022/10/31 04:26:49;;;;;;;3.90;1.50;;;;;;;7.55;75.30;99416.06;106397;1307;22190;-62
2022/10/31 04:29:18;;;;;;;7.40;1.70;;;;;;;7.50;74.87;99422.20;106232;1309;22315;-62
2022/10/31 04:31:45;;;;;;;;;;;;;;;7.45;72.66;99429.54;106293;1308;22909;-61
2022/10/31 04:34:11;;;;;;;2.80;1.00;;;;;;;7.40;69.61;99428.46;106264;1310;22941;-61
2022/10/31 04:36:39;;;;;;;3.80;0.90;;;;;;;7.36;68.54;99433.73;106348;1295;22151;-61
2022/10/31 04:39:06;;;;;;;1.80;0.90;;;;;;;7.29;67.42;99433.54;106319;1309;23550;-62
2022/10/31 04:41:38;;;;;;;3.20;1.00;;;;;;;7.22;66.99;99437.72;106248;1301;22116;-62
2022/10/31 04:44:12;;;;;;;4.50;1.50;;;;;;;7.14;66.98;99436.45;106423;1309;22323;-62
2022/10/31 04:46:39;;;;;;;2.00;1.00;;;;;;;7.07;66.60;99437.16;106347;1309;22158;-62
2022/10/31 04:49:06;;;;;;;4.80;1.30;;;;;;;7.01;66.13;99433.70;106240;1301;22221;-62
2022/10/31 04:51:34;;;;;;;5.70;1.40;;;;;;;6.98;66.62;99442.96;106194;1303;22213;-62
2022/10/31 04:54:00;;;;;;;3.80;1.00;;;;;;;6.92;66.10;99449.73;106412;1301;22172;-62
2022/10/31 04:56:27;;;;;;;;;;;;;;;6.88;66.08;99456.58;104055;1298;22591;-54
2022/10/31 04:58:57;;;;;;;2.30;1.30;;;;;;;6.82;66.25;99460.75;101938;1291;24189;-55
2022/10/31 05:01:24;;;;;;;2.40;1.30;;;;;;;6.77;65.75;99465.41;102084;1301;24872;-55
2022/10/31 05:03:51;;;;;;;2.90;1.00;;;;;;;6.72;66.32;99468.48;101871;1292;23908;-54
2022/10/31 05:06:18;;;;;;;2.90;0.80;;;;;;;6.66;66.32;99477.92;101852;1291;22497;-55
2022/10/31 05:08:45;;;;;;;;;;;;;;;6.62;66.39;99484.05;101905;1317;24362;-54
2022/10/31 05:11:12;;;;;;;1.90;0.60;;;;;;;6.58;66.53;99490.07;105909;1315;22923;-55
2022/10/31 05:13:39;;;;;;;3.30;0.70;;;;;;;6.51;66.82;99486.05;106207;1310;22105;-56
2022/10/31 05:16:09;;;;;;;1.50;0.80;;;;;;;6.52;67.09;99498.36;106389;1308;22373;-56
2022/10/31 05:18:55;;;;;;;2.20;0.90;;;;;;;6.51;67.24;99500.66;106352;1301;22197;-57
2022/10/31 05:21:44;;;;;;;2.70;1.30;;;;;;;6.49;67.55;99511.07;106190;1300;22301;-56
2022/10/31 05:24:11;;;;;;;2.20;1.20;;;;;;;6.49;67.47;99509.66;106252;1309;22216;-56
2022/10/31 05:26:39;;;;;;;3.10;1.00;;;;;;;6.47;67.04;99519.52;106391;1301;22163;-56
2022/10/31 05:29:06;;;;;;;2.30;1.10;;;;;;;6.47;67.33;99519.56;106425;1309;22327;-56
2022/10/31 05:31:33;;;;;;;4.20;1.30;;;;;;;6.47;67.60;99530.60;105857;1318;22156;-56
2022/10/31 05:34:00;;;;;;;3.80;0.90;;;;;;;6.46;67.15;99539.52;106227;1310;22082;-56
2022/10/31 05:36:30;;;;;;;3.80;1.30;;;;;;;6.45;66.89;99541.83;106413;1309;22133;-56
2022/10/31 05:38:58;;;;;;;2.80;1.20;;;;;;;6.44;65.54;99545.41;106312;1309;22202;-56
2022/10/31 05:41:30;;;;;;;5.00;0.90;;;;;;;6.42;64.42;99552.77;106330;1297;22108;-56
2022/10/31 05:44:05;;;;;;;2.40;0.90;;;;;;;6.42;64.07;99557.52;106359;1294;22249;-56
2022/10/31 05:46:38;;;;;;;3.40;1.10;;;;;;;6.39;63.34;99561.17;106340;1300;22206;-58
2022/10/31 05:49:43;;;;;;;3.30;1.40;;;;;;;6.36;62.67;99567.49;106289;1301;22198;-58
2022/10/31 05:52:28;;;;;;;1.30;0.80;;;;;;;6.37;63.40;99568.31;106425;1298;22148;-59
2022/10/31 05:55:02;;;;;;;4.30;1.00;;;;;;;6.38;63.02;99573.55;106227;1309;23401;-59
2022/10/31 05:57:33;;;;;;;4.90;1.20;;;;;;;6.36;63.12;99570.41;106374;1309;22932;-59
2022/10/31 06:00:00;;;;;;;3.70;1.20;;;;;;;6.37;63.37;99584.18;106221;1310;22332;-58
2022/10/31 06:02:34;;;;;;;4.20;1.20;;;;;;;6.37;63.93;99587.92;106228;1309;22306;-59
2022/10/31 06:05:21;;;;;;;1.20;0.70;;;;;;;6.38;64.21;99594.49;106196;1310;23305;-58
2022/10/31 06:07:48;;;;;;;3.10;1.00;;;;;;;6.40;64.29;99599.05;106381;1309;22225;-59
2022/10/31 06:10:15;;;;;;;1.90;0.80;;;;;;;6.40;63.83;99603.71;106315;1305;23025;-59
2022/10/31 06:12:43;;;;;;;8.00;1.00;;;;;;;6.41;64.11;99608.49;106171;1310;22124;-58
2022/10/31 06:15:21;;;;;;;2.20;0.70;;;;;;;6.43;63.00;99609.19;106193;1295;22222;-58
2022/10/31 06:18:00;;;;;;;1.80;0.80;;;;;;;6.43;62.43;99621.00;106331;1294;22242;-58
2022/10/31 06:20:32;;;;;;;1.50;0.60;;;;;;;6.44;61.15;99618.04;106254;1308;22339;-58
2022/10/31 06:23:02;;;;;;;1.40;0.80;;;;;;;6.45;60.93;99623.01;106195;1287;22160;-59
2022/10/31 06:25:30;;;;;;;2.20;1.20;;;;;;;6.47;61.24;99628.79;106357;1310;22332;-59
2022/10/31 06:27:57;;;;;;;3.30;1.10;;;;;;;6.50;61.16;99636.40;106317;1300;22162;-59
2022/10/31 06:30:29;;;;;;;1.90;0.80;;;;;;;6.53;60.76;99633.77;106311;1290;22146;-59
2022/10/31 06:33:02;;;;;;;4.00;1.00;;;;;;;6.54;61.12;99640.20;106271;1310;22254;-59
2022/10/31 06:35:29;;;;;;;1.50;1.00;;;;;;;6.56;61.56;99642.64;106277;1287;22985;-59
2022/10/31 06:37:56;;;;;;;2.00;0.90;;;;;;;6.58;62.15;99640.41;106222;1310;22861;-58
2022/10/31 06:40:37;;;;;;;1.00;0.70;;;;;;;6.56;62.25;99651.80;106429;1309;22133;-59
2022/10/31 06:43:21;;;;;;;2.80;1.10;;;;;;;6.56;62.64;99653.26;106313;1310;22222;-58
2022/10/31 06:45:49;;;;;;;1.90;0.90;;;;;;;6.57;63.21;99665.20;106356;1309;22852;-59
2022/10/31 06:48:23;;;;;;;3.00;1.40;;;;;;;6.58;63.24;99665.48;106330;1304;22154;-59
2022/10/31 06:51:20;;;;;;;1.50;1.00;;;;;;;6.60;63.46;99668.58;106184;1309;22435;-59
2022/10/31 06:53:48;;;;;;;3.80;1.30;;;;;;;6.63;63.39;99670.98;106262;1302;22162;-59
2022/10/31 06:56:15;;;;;;;;;;;;;;;6.67;63.28;99672.42;106398;1309;22387;-59
2022/10/31 06:58:46;;;;;;;2.00;1.10;;;;;;;6.71;63.25;99679.38;106267;1304;23254;-58
2022/10/31 07:01:13;;;;;;;;;;;;;;;6.74;61.45;99680.67;106350;1309;22408;-59
2022/10/31 07:03:40;;;;;;;2.40;0.80;;;;;;;6.74;62.22;99683.42;106360;1301;22148;-61
2022/10/31 07:06:07;;;;;;;2.30;1.00;;;;;;;6.75;62.53;99683.55;106385;1299;22098;-60
2022/10/31 07:08:33;;;;;;;;;;;;;;;6.75;62.19;99677.33;106343;1299;22431;-59
2022/10/31 07:11:00;;;;;;;1.70;0.80;;;;;;;6.75;61.95;99676.14;106421;1300;23229;-60
2022/10/31 07:13:27;;;;;;;2.90;1.30;;;;;;;6.76;62.13;99679.45;106408;1309;23214;-60
2022/10/31 07:16:04;;;;;;;4.60;1.00;;;;;;;6.76;60.50;99677.61;106415;1301;22987;-59
2022/10/31 07:18:32;;;;;;;49.10;22.70;;;;;;;6.75;59.56;99679.38;106290;1310;22158;-59
2022/10/31 07:20:58;;;;;;;3.50;1.80;;;;;;;6.74;59.53;99682.13;106357;1285;22314;-59
2022/10/31 07:23:25;;;;;;;;;;;;;;;6.77;58.61;99681.23;106213;1294;22384;-59
2022/10/31 07:26:15;;;;;;;3.50;1.00;;;;;;;6.79;58.44;99686.23;106218;1294;22132;-59
2022/10/31 07:28:46;;;;;;;1.90;1.30;;;;;;;6.79;58.33;99687.38;106383;1303;23100;-60
2022/10/31 07:31:13;;;;;;;2.20;0.90;;;;;;;6.82;56.99;99691.52;105572;1295;137254;-60
2022/10/31 07:33:40;;;;;;;;;;;;;;;6.85;56.29;99689.94;105541;1315;22402;-60
2022/10/31 07:36:25;;;;;;;1.20;0.70;;;;;;;6.88;55.80;99689.82;105715;1299;23103;-60
2022/10/31 07:38:53;;;;;;;3.80;1.10;;;;;;;6.91;56.44;99685.12;105592;1314;137911;-58
2022/10/31 07:41:21;;;;;;;2.00;1.00;;;;;;;6.94;56.62;99691.46;105765;1309;22145;-58
2022/10/31 07:43:48;;;;;;;1.80;1.10;;;;;;;6.99;56.26;99689.23;105433;1315;137037;-59
2022/10/31 07:46:17;;;;;;;2.50;1.10;;;;;;;7.04;56.13;99686.50;105820;1314;22292;-60
2022/10/31 07:48:56;;;;;;;3.20;1.00;;;;;;;7.09;55.17;99693.91;105663;1305;136908;-59
2022/10/31 07:51:41;;;;;;;1.50;0.90;;;;;;;7.08;54.84;99694.67;105816;1314;22222;-59
2022/10/31 07:54:30;;;;;;;1.50;0.80;;;;;;;7.07;54.80;99699.02;105846;1314;22250;-59
2022/10/31 07:56:57;;;;;;;2.00;0.90;;;;;;;7.06;54.80;99703.85;105493;1292;137055;-59
2022/10/31 07:59:25;;;;;;;2.10;0.90;;;;;;;7.06;54.84;99704.82;105697;1314;22572;-59
2022/10/31 08:01:53;;;;;;;2.40;1.10;;;;;;;7.04;54.73;99700.74;105480;1304;137069;-59
2022/10/31 08:04:31;;;;;;;3.40;0.80;;;;;;;7.08;55.05;99700.64;105833;1314;22131;-59
2022/10/31 08:07:17;;;;;;;5.20;1.20;;;;;;;7.14;55.65;99711.08;105721;1314;137121;-59
2022/10/31 08:09:48;;;;;;;3.00;1.20;;;;;;;7.18;55.41;99708.76;105656;1309;22156;-59
2022/10/31 08:12:20;;;;;;;2.80;1.50;;;;;;;7.21;55.14;99711.73;105739;1312;22135;-59
2022/10/31 08:14:46;;;;;;;;;;;;;;;7.24;54.64;99714.80;105549;1314;136860;-59
2022/10/31 08:17:14;;;;;;;4.50;1.30;;;;;;;7.28;53.76;99712.90;105715;1314;22179;-59
2022/10/31 08:19:49;;;;;;;1.90;1.00;;;;;;;7.32;52.75;99718.52;105560;1300;139063;-59
2022/10/31 08:22:17;;;;;;;1.90;1.00;;;;;;;7.35;52.23;99719.60;105728;1314;22959;-61
2022/10/31 08:24:44;;;;;;;5.20;0.80;;;;;;;7.37;51.69;99718.17;105558;1307;137431;-60
2022/10/31 08:27:11;;;;;;;;;;;;;;;7.39;51.28;99712.42;105748;1298;22390;-59
2022/10/31 08:29:38;;;;;;;1.40;0.90;;;;;;;7.41;51.39;99714.61;106028;1303;24420;-59
2022/10/31 08:32:05;;;;;;;5.70;1.00;;;;;;;7.45;51.11;99716.34;105881;1292;137009;-59
2022/10/31 08:34:52;;;;;;;6.40;1.60;;;;;;;7.50;51.50;99716.52;105855;1311;22107;-59
2022/10/31 08:37:38;;;;;;;14.10;6.60;;;;;;;7.54;50.72;99711.03;106012;1310;137056;-59
2022/10/31 08:40:06;;;;;;;3.60;1.10;;;;;;;7.62;50.55;99718.12;106021;1296;22117;-59
2022/10/31 08:42:33;;;;;;;1.10;0.80;;;;;;;7.63;50.49;99714.77;106019;1310;22163;-59
2022/10/31 08:45:01;;;;;;;2.40;0.90;;;;;;;7.64;50.82;99715.34;105924;1311;136915;-59
2022/10/31 08:47:27;;;;;;;4.10;1.70;;;;;;;7.68;51.29;99715.16;106134;1311;22128;-59
2022/10/31 08:49:54;;;;;;;;;;;;;;;7.76;50.78;99714.76;105896;1311;138515;-60
2022/10/31 08:52:25;;;;;;;3.10;1.00;;;;;;;7.82;50.16;99707.67;106013;1311;23341;-61
2022/10/31 08:55:11;;;;;;;2.00;1.10;;;;;;;7.86;49.55;99712.87;105937;1311;137726;-59
2022/10/31 08:57:57;;;;;;;1.40;0.70;;;;;;;7.91;49.43;99714.36;106123;1309;22258;-58
2022/10/31 09:00:29;;;;;;;1.90;0.80;;;;;;;7.94;49.23;99698.85;105915;1311;22179;-59
2022/10/31 09:03:01;;;;;;;4.50;1.10;;;;;;;7.97;48.74;99706.61;105924;1310;137885;-59
2022/10/31 09:05:29;;;;;;;2.30;1.10;;;;;;;7.98;48.97;99704.84;106016;1311;23321;-59
2022/10/31 09:07:59;;;;;;;1.60;0.90;;;;;;;8.00;48.08;99709.56;105906;1310;137664;-59
2022/10/31 09:10:27;;;;;;;3.70;1.50;;;;;;;8.00;47.49;99703.71;106114;1303;23330;-58
2022/10/31 09:12:58;;;;;;;12.00;1.10;;;;;;;8.01;47.08;99709.64;106011;1296;137092;-59
2022/10/31 09:15:45;;;;;;;3.70;0.90;;;;;;;8.01;46.89;99707.25;106127;1310;22121;-59
2022/10/31 09:18:21;;;;;;;4.80;1.40;;;;;;;8.02;46.75;99706.40;106086;1310;22921;-59
2022/10/31 09:20:58;;;;;;;4.90;1.00;;;;;;;8.04;46.71;99708.08;105946;1307;136967;-59
2022/10/31 09:23:26;;;;;;;3.40;1.10;;;;;;;8.07;46.22;99712.17;105975;1306;22176;-59
2022/10/31 09:25:53;;;;;;;1.50;0.90;;;;;;;8.11;46.12;99708.02;105942;1311;137197;-60
2022/10/31 09:28:57;;;;;;;3.40;1.20;;;;;;;8.14;45.41;99710.92;105952;1311;22177;-60
2022/10/31 09:31:24;;;;;;;1.50;1.10;;;;;;;8.16;45.70;99712.44;105942;1295;138246;-61
2022/10/31 09:33:57;;;;;;;1.70;1.00;;;;;;;8.21;45.54;99709.44;106002;1311;22271;-59
2022/10/31 09:36:39;;;;;;;3.20;1.10;;;;;;;8.23;45.60;99713.71;106113;1303;22254;-59
2022/10/31 09:39:09;;;;;;;2.20;0.90;;;;;;;8.26;45.86;99718.17;105990;1310;22249;-58
2022/10/31 09:42:04;;;;;;;1.80;0.90;;;;;;;8.31;45.45;99722.10;105961;1312;22130;-59
2022/10/31 09:44:55;;;;;;;4.70;1.20;;;;;;;8.36;44.53;99711.42;105903;1296;137458;-58
2022/10/31 09:47:58;;;;;;;1.70;0.80;;;;;;;8.39;44.60;99711.34;106000;1311;22140;-58
2022/10/31 09:50:31;;;;;;;1.30;0.80;;;;;;;8.42;44.28;99707.86;105495;1305;137887;-58
2022/10/31 09:53:02;;;;;;;1.40;1.10;;;;;;;8.43;44.63;99716.08;105492;1314;23151;-58
2022/10/31 09:55:39;;;;;;;1.70;0.80;;;;;;;8.44;44.18;99712.38;105359;1310;138068;-58
2022/10/31 09:58:27;;;;;;;1.60;0.70;;;;;;;8.46;44.17;99713.86;105274;1314;22245;-58
2022/10/31 10:00:56;;;;;;;3.20;1.00;;;;;;;8.50;44.36;99711.77;105408;1305;137217;-58
2022/10/31 10:03:32;;;;;;;1.60;0.90;;;;;;;8.55;43.53;99702.92;105416;1299;22301;-58
2022/10/31 10:06:14;;;;;;;4.10;1.00;;;;;;;8.60;43.05;99707.80;105416;1314;22420;-59
2022/10/31 10:09:12;;;;;;;3.70;0.80;;;;;;;8.62;42.62;99710.45;105770;1306;22365;-59
2022/10/31 10:12:20;;;;;;;8.70;2.10;;;;;;;8.62;42.34;99703.45;105921;1313;22347;-57
2022/10/31 10:14:50;;;;;;;2.00;1.20;;;;;;;8.65;41.52;99713.67;105691;1297;138866;-58
2022/10/31 10:17:42;;;;;;;2.10;0.70;;;;;;;8.64;41.41;99714.15;105819;1314;23506;-58
2022/10/31 10:20:17;;;;;;;1.90;0.80;;;;;;;8.64;42.06;99720.00;105714;1299;136961;-58
2022/10/31 10:23:03;;;;;;;1.10;0.70;;;;;;;8.65;41.01;99712.08;105743;1314;22377;-59
2022/10/31 10:25:39;;;;;;;3.70;0.70;;;;;;;8.69;41.31;99709.27;105736;1305;138785;-59
2022/10/31 10:28:26;;;;;;;2.60;1.20;;;;;;;8.72;41.42;99709.42;105984;1303;22175;-59
2022/10/31 10:31:13;;;;;;;2.60;0.70;;;;;;;8.76;41.71;99713.69;106246;1300;138140;-58
2022/10/31 10:33:41;;;;;;;2.50;1.20;;;;;;;8.81;41.09;99711.65;106185;1303;22153;-60
2022/10/31 10:36:20;;;;;;;0.80;0.80;;;;;;;8.83;40.67;99711.02;106366;1308;22218;-59
2022/10/31 10:38:50;;;;;;;1.90;1.00;;;;;;;8.85;40.01;99714.48;106068;1300;138329;-58
2022/10/31 10:41:19;;;;;;;5.20;1.50;;;;;;;8.85;39.59;99715.58;106198;1310;22274;-59
2022/10/31 10:43:48;;;;;;;2.60;0.70;;;;;;;8.86;40.38;99709.45;106182;1309;138384;-59
2022/10/31 10:49:36;;;;;;;1.90;1.00;;;;;;;8.96;40.56;99712.15;106191;1308;138143;-59
2022/10/31 10:52:22;;;;;;;1.00;0.80;;;;;;;8.96;40.35;99706.39;106245;1309;22138;-61
2022/10/31 10:55:14;;;;;;;2.60;0.80;;;;;;;9.02;40.14;99716.67;106419;1305;141084;-59
2022/10/31 10:57:54;;;;;;;3.90;1.40;;;;;;;9.03;40.43;99710.72;106490;1305;23001;-59
2022/10/31 11:00:31;;;;;;;2.80;1.10;;;;;;;9.08;40.92;99714.78;106509;1305;22983;-59
2022/10/31 11:02:58;;;;;;;4.30;1.20;;;;;;;9.14;40.74;99714.67;106374;1291;137316;-59
2022/10/31 11:05:34;;;;;;;1.50;1.10;;;;;;;9.18;40.46;99707.52;106388;1298;22202;-59
2022/10/31 11:08:01;;;;;;;2.00;1.40;;;;;;;9.22;39.91;99712.80;106299;1305;137680;-60
2022/10/31 11:10:28;;;;;;;5.60;2.00;;;;;;;9.24;40.34;99710.77;106535;1305;22908;-60
2022/10/31 11:13:05;;;;;;;2.00;0.90;;;;;;;9.29;39.70;99707.86;106454;1305;138248;-59
2022/10/31 11:15:36;;;;;;;3.80;1.20;;;;;;;9.29;38.74;99704.77;106503;1305;22419;-60
2022/10/31 11:18:03;;;;;;;2.70;1.30;;;;;;;9.28;39.23;99706.33;106426;1307;23334;-59
2022/10/31 11:20:34;;;;;;;;;;;;;;;9.31;39.45;99703.05;106326;1298;137885;-59
2022/10/31 11:23:20;;;;;;;2.50;0.70;;;;;;;9.34;38.30;99709.92;106453;1290;22941;-59
2022/10/31 11:26:00;;;;;;;2.30;0.90;;;;;;;9.33;38.29;99714.41;106291;1305;137542;-59
2022/10/31 11:28:32;;;;;;;1.70;1.00;;;;;;;9.30;37.53;99716.04;106409;1305;22131;-59
2022/10/31 11:30:59;;;;;;;3.50;0.80;;;;;;;9.25;37.68;99716.48;106319;1292;137699;-59
2022/10/31 11:33:32;;;;;;;5.60;1.00;;;;;;;9.24;37.75;99715.44;106486;1290;22176;-58
2022/10/31 11:35:58;;;;;;;1.40;1.00;;;;;;;9.25;37.51;99721.87;106449;1300;22258;-58
2022/10/31 11:38:34;;;;;;;1.20;0.80;;;;;;;9.25;37.49;99725.14;106360;1305;137025;-59
2022/10/31 11:41:28;;;;;;;1.30;0.80;;;;;;;9.25;37.66;99724.91;106443;1302;22148;-59
2022/10/31 11:44:00;;;;;;;3.10;0.90;;;;;;;9.26;37.88;99718.18;106343;1290;138013;-59
2022/10/31 11:46:33;;;;;;;3.60;1.20;;;;;;;9.27;38.11;99718.77;106464;1282;22150;-59
2022/10/31 11:49:00;;;;;;;5.30;1.20;;;;;;;9.30;38.64;99712.35;106339;1284;138191;-60
2022/10/31 11:51:28;;;;;;;2.50;0.90;;;;;;;9.38;37.85;99712.70;106441;1298;22212;-59
2022/10/31 11:53:57;;;;;;;7.10;1.20;;;;;;;9.41;37.92;99720.48;106426;1307;22936;-59
2022/10/31 11:56:41;;;;;;;9.80;1.90;;;;;;;9.42;38.12;99713.10;106404;1305;138327;-60
2022/10/31 11:59:22;;;;;;;10.70;1.00;;;;;;;9.44;38.17;99719.77;106555;1305;22175;-59
2022/10/31 12:01:50;;;;;;;1.40;1.00;;;;;;;9.47;38.17;99720.16;106280;1306;137425;-59
2022/10/31 12:04:17;;;;;;;1.80;0.80;;;;;;;9.48;37.54;99719.80;106422;1292;22150;-59
2022/10/31 12:06:47;;;;;;;2.60;1.40;;;;;;;9.47;37.25;99718.27;106411;1307;22991;-59
2022/10/31 12:09:21;;;;;;;9.30;1.60;;;;;;;9.48;37.21;99719.30;106409;1306;22319;-59